Terminal Aerodrome Forecast
Issued by NWS

Home | Current Version | Previous Version | Text Only | Print | Product List | Glossary On
Versions: 1 2 3 4 5 6 7 8 9 10 11 12 13 14 15 16 17 18 19 20 21 22 23 24 25 26 27 28
000
FTUS43 KLOT 010316 AAA
TAFDPA
TAF AMD
KDPA 010316Z 0103/0124 15006KT P6SM BKN100
     FM010900 16006KT P6SM VCSH SCT050 BKN100
     FM011200 18006KT 6SM SHRA VCTS SCT040CB BKN080
     FM011600 24008KT P6SM BKN050
     FM011900 26010KT P6SM VCTS SCT040 BKN100CB
     FM012200 28006KT P6SM SCT250=

USA.gov is the U.S. government's official web portal to all federal, state and local government web resources and services.